Terminal Aerodrome Forecast
Issued by NWS

Home | Current Version | Previous Version | Text Only | Print | Product List | Glossary On
Versions: 1 2 3 4 5 6 7 8 9 10 11 12 13 14 15 16 17 18
000
FTUS43 KAPX 291903 AAB
TAFAPN
TAF AMD
KAPN 291903Z 2919/3018 22011G20KT P6SM SCT035 BKN050
     FM292030 25011G20KT P6SM SKC
     FM300100 26009KT P6SM SKC
     FM301400 27010G18KT P6SM BKN040=

USA.gov is the U.S. government's official web portal to all federal, state and local government web resources and services.